createdAt,value
2022-09-10T00:01:44.246Z,9.55
2022-09-10T00:04:14.549Z,10.10
2022-09-10T00:06:46.209Z,9.75
2022-09-10T00:09:14.339Z,8.73
2022-09-10T00:11:45.842Z,9.00
2022-09-10T00:14:21.900Z,8.07
2022-09-10T00:16:50.182Z,8.18
2022-09-10T00:19:18.546Z,7.90
2022-09-10T00:21:46.268Z,6.70
2022-09-10T00:24:14.363Z,7.53
2022-09-10T00:26:42.207Z,7.32
2022-09-10T00:29:20.053Z,8.20
2022-09-10T00:31:49.293Z,7.57
2022-09-10T00:34:17.356Z,8.20
2022-09-10T00:36:44.971Z,8.48
2022-09-10T00:39:16.007Z,8.60
2022-09-10T00:41:48.357Z,8.05
2022-09-10T00:44:38.802Z,7.95
2022-09-10T00:47:14.163Z,7.47
2022-09-10T00:49:50.854Z,6.90
2022-09-10T00:52:21.798Z,7.10
2022-09-10T00:54:50.110Z,6.75
2022-09-10T00:57:23.320Z,6.62
2022-09-10T00:59:59.644Z,6.70
2022-09-10T01:02:27.481Z,6.30
2022-09-10T01:04:58.255Z,6.22
2022-09-10T01:07:29.229Z,6.25
2022-09-10T01:09:59.322Z,6.20
2022-09-10T01:12:58.868Z,6.80
2022-09-10T01:15:53.436Z,6.15
2022-09-10T01:18:27.413Z,4.82
2022-09-10T01:21:02.544Z,4.80
2022-09-10T01:23:55.589Z,4.43
2022-09-10T01:26:29.805Z,4.57
2022-09-10T01:29:28.551Z,4.45
2022-09-10T01:32:07.053Z,4.80
2022-09-10T01:35:14.432Z,4.28
2022-09-10T01:37:54.617Z,4.80
2022-09-10T01:40:32.608Z,4.65
2022-09-10T01:43:11.750Z,4.32
2022-09-10T01:45:45.444Z,4.80
2022-09-10T01:48:41.599Z,5.12
2022-09-10T01:51:31.145Z,5.28
2022-09-10T01:54:26.455Z,5.07
2022-09-10T01:57:13.819Z,5.40
2022-09-10T01:59:47.368Z,5.00
2022-09-10T02:02:21.746Z,4.90
2022-09-10T02:04:53.533Z,5.10
2022-09-10T02:07:23.129Z,5.07
2022-09-10T02:09:52.286Z,4.87
2022-09-10T02:12:22.356Z,4.60
2022-09-10T02:14:54.151Z,4.62
2022-09-10T02:17:24.483Z,4.47
2022-09-10T02:19:52.919Z,4.10
2022-09-10T02:22:26.565Z,3.75
2022-09-10T02:24:54.317Z,3.60
2022-09-10T02:27:23.723Z,3.60
2022-09-10T02:29:52.300Z,3.30
2022-09-10T02:32:22.523Z,3.60
2022-09-10T02:34:59.324Z,3.78
2022-09-10T02:37:28.446Z,3.80
2022-09-10T02:39:56.352Z,3.58
2022-09-10T02:42:26.436Z,3.65
2022-09-10T02:44:54.044Z,3.17
2022-09-10T02:47:21.888Z,3.20
2022-09-10T02:49:54.645Z,2.80
2022-09-10T02:52:24.895Z,2.90
2022-09-10T02:54:54.840Z,2.65
2022-09-10T02:57:22.969Z,2.47
2022-09-10T02:59:54.055Z,2.35
2022-09-10T03:02:23.129Z,2.20
2022-09-10T03:04:50.706Z,2.30
2022-09-10T03:07:20.397Z,2.17
2022-09-10T03:09:48.428Z,2.33
2022-09-10T03:12:16.314Z,2.35
2022-09-10T03:14:47.460Z,2.40
2022-09-10T03:17:15.350Z,2.30
2022-09-10T03:19:43.787Z,2.33
2022-09-10T03:22:11.615Z,2.20
2022-09-10T03:24:39.504Z,1.90
2022-09-10T03:27:07.127Z,2.20
2022-09-10T03:29:36.375Z,2.03
2022-09-10T03:32:04.206Z,2.20
2022-09-10T03:34:31.728Z,2.05
2022-09-10T03:36:59.527Z,2.25
2022-09-10T03:39:28.544Z,2.03
2022-09-10T03:42:05.333Z,1.95
2022-09-10T03:44:33.829Z,1.90
2022-09-10T03:47:05.162Z,1.80
2022-09-10T03:49:33.226Z,1.75
2022-09-10T03:52:03.521Z,1.63
2022-09-10T03:54:32.378Z,1.70
2022-09-10T03:57:03.084Z,1.73
2022-09-10T03:59:31.228Z,1.55
2022-09-10T04:01:59.392Z,1.70
2022-09-10T04:04:27.503Z,1.80
2022-09-10T04:06:54.928Z,1.73
2022-09-10T04:09:22.391Z,1.60
2022-09-10T04:11:50.562Z,1.60
2022-09-10T04:14:20.388Z,1.52
2022-09-10T04:16:48.954Z,1.70
2022-09-10T04:19:18.070Z,1.50
2022-09-10T04:21:47.707Z,1.50
2022-09-10T04:24:15.312Z,1.63
2022-09-10T04:26:43.103Z,1.55
2022-09-10T04:29:17.019Z,1.40
2022-09-10T04:31:46.805Z,1.45
2022-09-10T04:34:17.788Z,1.58
2022-09-10T04:36:45.451Z,1.27
2022-09-10T04:39:14.701Z,1.45
2022-09-10T04:41:45.762Z,1.37
2022-09-10T04:44:13.723Z,1.33
2022-09-10T04:46:43.578Z,1.40
2022-09-10T04:49:11.486Z,1.42
2022-09-10T04:51:39.466Z,1.40
2022-09-10T04:54:07.723Z,1.30
2022-09-10T04:56:36.664Z,1.50
2022-09-10T04:59:05.664Z,1.55
2022-09-10T05:01:33.239Z,1.40
2022-09-10T05:04:00.707Z,1.30
2022-09-10T05:06:28.383Z,1.50
2022-09-10T05:08:56.732Z,1.50
2022-09-10T05:11:25.901Z,1.60
2022-09-10T05:13:54.273Z,1.40
2022-09-10T05:16:22.093Z,1.50
2022-09-10T05:18:49.718Z,1.52
2022-09-10T05:21:18.633Z,1.55
2022-09-10T05:23:47.337Z,1.50
2022-09-10T05:26:15.039Z,1.40
2022-09-10T05:28:47.862Z,1.62
2022-09-10T05:31:18.139Z,1.30
2022-09-10T05:33:46.707Z,1.50
2022-09-10T05:36:14.924Z,1.45
2022-09-10T05:38:46.584Z,1.57
2022-09-10T05:41:15.477Z,1.48
2022-09-10T05:43:43.419Z,1.45
2022-09-10T05:46:14.212Z,1.42
2022-09-10T05:48:43.268Z,1.48
2022-09-10T05:51:11.210Z,1.50
2022-09-10T05:53:39.582Z,1.52
2022-09-10T05:56:07.705Z,1.70
2022-09-10T05:58:41.430Z,1.50
2022-09-10T06:01:09.698Z,1.52
2022-09-10T06:03:43.165Z,1.83
2022-09-10T06:06:11.349Z,1.40
2022-09-10T06:08:41.334Z,1.50
2022-09-10T06:11:10.683Z,1.27
2022-09-10T06:13:40.000Z,1.50
2022-09-10T06:16:08.999Z,1.42
2022-09-10T06:18:37.226Z,1.42
2022-09-10T06:21:16.373Z,1.45
2022-09-10T06:23:45.686Z,1.55
2022-09-10T06:26:17.302Z,1.60
2022-09-10T06:28:45.331Z,1.60
2022-09-10T06:31:17.324Z,1.60
2022-09-10T06:33:47.124Z,1.80
2022-09-10T06:36:15.912Z,1.58
2022-09-10T06:38:45.274Z,1.48
2022-09-10T06:41:17.168Z,1.60
2022-09-10T06:43:48.597Z,1.40
2022-09-10T06:46:51.194Z,1.70
2022-09-10T06:49:06.963Z,1.50
2022-09-10T06:51:35.265Z,1.50
2022-09-10T06:54:05.951Z,1.55
2022-09-10T06:56:34.295Z,1.70
2022-09-10T06:59:02.855Z,1.60
2022-09-10T07:01:31.199Z,1.70
2022-09-10T07:04:00.344Z,1.70
2022-09-10T07:06:34.910Z,2.28
2022-09-10T07:09:03.863Z,1.80
2022-09-10T07:11:32.799Z,2.00
2022-09-10T07:14:01.602Z,2.10
2022-09-10T07:16:29.740Z,2.00
2022-09-10T07:18:59.540Z,2.35
2022-09-10T07:21:31.265Z,2.25
2022-09-10T07:24:04.478Z,2.00
2022-09-10T07:26:33.003Z,2.00
2022-09-10T07:29:02.083Z,2.12
2022-09-10T07:31:34.050Z,2.10
2022-09-10T07:34:03.056Z,1.90
2022-09-10T07:36:31.434Z,1.87
2022-09-10T07:39:03.291Z,2.10
2022-09-10T07:41:37.713Z,2.20
2022-09-10T07:44:05.969Z,1.95
2022-09-10T07:46:34.279Z,2.20
2022-09-10T07:49:02.732Z,2.08
2022-09-10T07:51:33.294Z,1.95
2022-09-10T07:54:01.796Z,2.20
2022-09-10T07:56:31.985Z,2.20
2022-09-10T07:59:04.109Z,2.10
2022-09-10T08:01:43.044Z,2.00
2022-09-10T08:04:11.241Z,1.97
2022-09-10T08:06:39.860Z,2.17
2022-09-10T08:09:07.986Z,1.98
2022-09-10T08:11:36.380Z,2.00
2022-09-10T08:14:05.109Z,2.00
2022-09-10T08:16:39.252Z,2.10
2022-09-10T08:19:16.821Z,2.00
2022-09-10T08:21:45.743Z,2.10
2022-09-10T08:24:14.991Z,2.08
2022-09-10T08:26:43.879Z,1.85
2022-09-10T08:29:12.226Z,2.00
2022-09-10T08:31:41.761Z,1.67
2022-09-10T08:34:12.106Z,1.83
2022-09-10T08:36:40.353Z,1.90
2022-09-10T08:39:08.619Z,1.50
2022-09-10T08:41:57.693Z,1.48
2022-09-10T08:44:43.611Z,1.60
2022-09-10T08:47:35.289Z,1.52
2022-09-10T08:50:20.786Z,1.75
2022-09-10T08:53:08.063Z,1.37
2022-09-10T08:55:45.035Z,1.75
2022-09-10T08:58:37.589Z,1.70
2022-09-10T09:01:12.992Z,1.10
2022-09-10T09:03:47.510Z,1.12
2022-09-10T09:06:29.324Z,1.50
2022-09-10T09:08:58.761Z,1.20
2022-09-10T09:11:48.009Z,1.00
2022-09-10T09:14:21.527Z,1.10
2022-09-10T09:17:17.030Z,1.10
2022-09-10T09:19:59.630Z,1.10
2022-09-10T09:22:51.646Z,1.20
2022-09-10T09:25:32.788Z,1.20
2022-09-10T09:28:01.393Z,1.00
2022-09-10T09:30:34.313Z,1.10
2022-09-10T09:33:22.690Z,1.17
2022-09-10T09:35:55.444Z,1.10
2022-09-10T09:38:24.529Z,1.30
2022-09-10T09:41:01.260Z,1.30
2022-09-10T09:44:20.635Z,1.30
2022-09-10T09:46:57.562Z,1.10
2022-09-10T09:49:26.379Z,1.00
2022-09-10T09:51:56.154Z,1.00
2022-09-10T09:55:03.011Z,0.90
2022-09-10T09:57:21.016Z,0.95
2022-09-10T09:59:51.497Z,1.17
2022-09-10T10:02:25.477Z,1.00
2022-09-10T10:05:07.426Z,1.30
2022-09-10T10:07:37.186Z,1.40
2022-09-10T10:10:22.473Z,1.00
2022-09-10T10:12:51.739Z,0.85
2022-09-10T10:15:36.909Z,1.00
2022-09-10T10:18:25.323Z,1.00
2022-09-10T10:21:33.122Z,1.00
2022-09-10T10:24:04.360Z,0.90
2022-09-10T10:26:33.874Z,0.90
2022-09-10T10:29:06.557Z,1.00
2022-09-10T10:31:42.653Z,0.90
2022-09-10T10:34:10.317Z,0.90
2022-09-10T10:37:09.384Z,1.00
2022-09-10T10:39:49.555Z,0.90
2022-09-10T10:42:39.674Z,0.90
2022-09-10T10:45:38.804Z,0.70
2022-09-10T10:48:37.880Z,0.80
2022-09-10T10:51:18.393Z,0.90
2022-09-10T10:53:49.689Z,0.90
2022-09-10T10:56:33.191Z,0.80
2022-09-10T10:59:16.475Z,0.70
2022-09-10T11:02:14.268Z,0.73
2022-09-10T11:04:46.820Z,0.90
2022-09-10T11:07:23.501Z,1.00
2022-09-10T11:10:00.488Z,0.80
2022-09-10T11:12:43.890Z,0.60
2022-09-10T11:15:34.987Z,0.60
2022-09-10T11:18:20.528Z,1.00
2022-09-10T11:21:03.307Z,0.77
2022-09-10T11:23:55.525Z,0.80
2022-09-10T11:26:25.190Z,0.85
2022-09-10T11:29:18.187Z,0.80
2022-09-10T11:31:50.380Z,1.02
2022-09-10T11:34:31.828Z,1.05
2022-09-10T11:37:29.572Z,1.02
2022-09-10T11:39:59.842Z,0.90
2022-09-10T11:42:38.676Z,1.10
2022-09-10T11:48:53.474Z,0.80
2022-09-10T11:51:29.422Z,1.05
2022-09-10T11:53:58.194Z,1.10
2022-09-10T11:56:53.124Z,1.00
2022-09-10T11:59:59.770Z,0.80
2022-09-10T12:02:59.609Z,1.00
2022-09-10T12:06:02.277Z,0.87
2022-09-10T12:08:38.487Z,0.80
2022-09-10T12:11:15.692Z,0.90
2022-09-10T12:13:49.511Z,1.00
2022-09-10T12:16:36.536Z,0.90
2022-09-10T12:19:16.614Z,1.00
2022-09-10T12:21:50.296Z,1.00
2022-09-10T12:24:36.288Z,1.00
2022-09-10T12:27:08.900Z,0.93
2022-09-10T12:29:43.500Z,1.45
2022-09-10T12:32:20.702Z,1.10
2022-09-10T12:35:30.526Z,1.00
2022-09-10T12:38:36.742Z,1.00
2022-09-10T12:41:10.759Z,1.20
2022-09-10T12:43:41.358Z,1.10
2022-09-10T12:46:09.109Z,1.12
2022-09-10T12:48:41.703Z,1.10
2022-09-10T12:51:43.597Z,1.10
2022-09-10T12:54:20.433Z,0.98
2022-09-10T12:57:04.098Z,1.12
2022-09-10T12:59:40.995Z,0.95
2022-09-10T13:02:23.495Z,1.10
2022-09-10T13:04:57.577Z,1.10
2022-09-10T13:07:32.824Z,1.02
2022-09-10T13:10:24.475Z,1.10
2022-09-10T13:13:05.136Z,1.10
2022-09-10T13:15:35.819Z,1.08
2022-09-10T13:18:13.192Z,1.10
2022-09-10T13:20:45.527Z,1.20
2022-09-10T13:23:18.342Z,1.05
2022-09-10T13:25:47.823Z,1.12
2022-09-10T13:28:30.449Z,1.20
2022-09-10T13:31:05.864Z,1.10
2022-09-10T13:33:52.665Z,1.00
2022-09-10T13:36:29.569Z,1.30
2022-09-10T13:39:23.744Z,1.00
2022-09-10T13:42:06.541Z,1.20
2022-09-10T13:48:31.540Z,1.15
2022-09-10T13:51:17.500Z,1.20
2022-09-10T13:53:47.172Z,1.30
2022-09-10T13:56:28.514Z,0.90
2022-09-10T13:59:03.409Z,1.10
2022-09-10T14:01:55.383Z,0.90
2022-09-10T14:04:33.541Z,1.00
2022-09-10T14:07:18.305Z,1.00
2022-09-10T14:09:52.284Z,1.20
2022-09-10T14:12:26.659Z,1.00
2022-09-10T14:14:56.859Z,1.00
2022-09-10T14:17:29.337Z,1.00
2022-09-10T14:20:02.728Z,1.27
2022-09-10T14:22:31.936Z,1.00
2022-09-10T14:25:04.333Z,0.95
2022-09-10T14:27:43.556Z,1.08
2022-09-10T14:30:19.855Z,1.20
2022-09-10T14:32:50.399Z,1.10
2022-09-10T14:35:46.825Z,1.10
2022-09-10T14:38:30.230Z,0.98
2022-09-10T14:41:11.286Z,0.90
2022-09-10T14:43:40.706Z,1.00
2022-09-10T14:46:10.415Z,1.00
2022-09-10T14:49:01.425Z,0.82
2022-09-10T14:51:32.133Z,0.90
2022-09-10T14:53:59.758Z,0.90
2022-09-10T14:56:45.180Z,1.20
2022-09-10T14:59:26.998Z,0.98
2022-09-10T15:01:56.637Z,0.90
2022-09-10T15:04:28.546Z,0.87
2022-09-10T15:07:00.562Z,0.80
2022-09-10T15:09:29.701Z,0.90
2022-09-10T15:12:13.486Z,0.80
2022-09-10T15:14:44.618Z,0.90
2022-09-10T15:17:17.711Z,0.90
2022-09-10T15:19:47.198Z,1.00
2022-09-10T15:22:29.704Z,0.90
2022-09-10T15:25:09.542Z,0.90
2022-09-10T15:27:41.926Z,0.70
2022-09-10T15:30:22.508Z,0.93
2022-09-10T15:32:52.476Z,0.90
2022-09-10T15:35:23.206Z,0.80
2022-09-10T15:37:51.798Z,0.70
2022-09-10T15:40:19.483Z,0.85
2022-09-10T15:42:48.687Z,0.82
2022-09-10T15:45:16.366Z,0.90
2022-09-10T15:47:44.522Z,0.82
2022-09-10T15:50:14.709Z,1.00
2022-09-10T15:52:50.608Z,0.90
2022-09-10T15:55:22.102Z,0.80
2022-09-10T15:57:58.176Z,0.85
2022-09-10T16:00:30.109Z,0.80
2022-09-10T16:02:58.581Z,0.73
2022-09-10T16:05:27.166Z,0.88
2022-09-10T16:07:56.871Z,0.90
2022-09-10T16:10:33.469Z,1.00
2022-09-10T16:13:01.026Z,0.90
2022-09-10T16:15:28.965Z,0.90
2022-09-10T16:18:02.713Z,0.80
2022-09-10T16:20:32.211Z,0.90
2022-09-10T16:23:04.529Z,1.00
2022-09-10T16:25:33.937Z,1.00
2022-09-10T16:28:08.823Z,0.90
2022-09-10T16:30:39.763Z,1.00
2022-09-10T16:33:07.527Z,1.00
2022-09-10T16:35:36.047Z,0.90
2022-09-10T16:38:08.210Z,0.90
2022-09-10T16:40:38.336Z,1.00
2022-09-10T16:43:08.114Z,1.00
2022-09-10T16:45:35.870Z,1.08
2022-09-10T16:48:04.582Z,1.07
2022-09-10T16:50:45.883Z,1.12
2022-09-10T16:53:14.342Z,1.08
2022-09-10T16:55:44.985Z,1.20
2022-09-10T16:58:15.718Z,1.10
2022-09-10T17:00:45.073Z,1.30
2022-09-10T17:03:13.274Z,1.20
2022-09-10T17:05:41.534Z,1.10
2022-09-10T17:08:27.509Z,1.00
2022-09-10T17:10:56.328Z,1.30
2022-09-10T17:13:28.441Z,1.27
2022-09-10T17:16:23.356Z,1.20
2022-09-10T17:19:02.428Z,1.20
2022-09-10T17:21:32.116Z,1.15
2022-09-10T17:24:02.537Z,1.30
2022-09-10T17:27:05.535Z,1.40
2022-09-10T17:29:34.291Z,1.10
2022-09-10T17:32:02.219Z,1.00
2022-09-10T17:34:51.660Z,1.00
2022-09-10T17:37:20.099Z,0.88
2022-09-10T17:39:55.294Z,0.80
2022-09-10T17:42:23.228Z,0.85
2022-09-10T17:44:50.756Z,0.90
2022-09-10T17:47:34.361Z,0.75
2022-09-10T17:50:17.850Z,0.70
2022-09-10T17:52:51.569Z,0.87
2022-09-10T17:55:20.374Z,0.80
2022-09-10T17:57:48.049Z,0.90
2022-09-10T18:00:15.837Z,0.80
2022-09-10T18:03:20.851Z,1.10
2022-09-10T18:05:55.007Z,0.80
2022-09-10T18:08:24.425Z,0.77
2022-09-10T18:11:10.996Z,0.75
2022-09-10T18:13:40.666Z,0.80
2022-09-10T18:16:18.741Z,0.90
2022-09-10T18:18:54.264Z,1.00
2022-09-10T18:21:25.577Z,0.82
2022-09-10T18:24:02.319Z,0.90
2022-09-10T18:26:32.744Z,0.80
2022-09-10T18:29:06.675Z,1.00
2022-09-10T18:31:39.410Z,0.90
2022-09-10T18:34:09.716Z,0.90
2022-09-10T18:36:37.200Z,1.10
2022-09-10T18:39:22.211Z,1.00
2022-09-10T18:41:59.814Z,1.17
2022-09-10T18:44:33.487Z,1.20
2022-09-10T18:47:17.808Z,0.95
2022-09-10T18:49:59.228Z,1.10
2022-09-10T18:52:27.453Z,1.08
2022-09-10T18:54:55.299Z,0.90
2022-09-10T18:57:23.649Z,1.10
2022-09-10T18:59:54.403Z,1.10
2022-09-10T19:02:22.310Z,1.10
2022-09-10T19:05:10.153Z,1.40
2022-09-10T19:07:40.248Z,1.90
2022-09-10T19:10:09.159Z,1.50
2022-09-10T19:12:37.731Z,1.60
2022-09-10T19:15:05.996Z,1.98
2022-09-10T19:17:34.736Z,1.42
2022-09-10T19:20:02.739Z,1.58
2022-09-10T19:22:30.737Z,2.25
2022-09-10T19:24:58.527Z,3.25
2022-09-10T19:27:26.293Z,11.90
2022-09-10T19:29:56.365Z,15.80
2022-09-10T19:32:24.124Z,11.60
2022-09-10T19:34:55.756Z,7.47
2022-09-10T19:37:28.392Z,6.05
2022-09-10T19:39:57.217Z,4.63
2022-09-10T19:42:25.209Z,4.27
2022-09-10T19:44:53.451Z,3.25
2022-09-10T19:47:24.216Z,3.00
2022-09-10T19:49:52.244Z,2.37
2022-09-10T19:52:21.394Z,2.22
2022-09-10T19:54:49.593Z,2.12
2022-09-10T19:57:17.999Z,2.00
2022-09-10T19:59:45.611Z,1.70
2022-09-10T20:02:13.134Z,1.50
2022-09-10T20:04:41.189Z,1.50
2022-09-10T20:07:08.817Z,1.50
2022-09-10T20:09:39.919Z,1.60
2022-09-10T20:12:08.977Z,1.70
2022-09-10T20:14:38.258Z,1.40
2022-09-10T20:17:06.655Z,1.42
2022-09-10T20:19:34.529Z,1.42
2022-09-10T20:22:01.946Z,1.30
2022-09-10T20:24:29.386Z,1.10
2022-09-10T20:26:57.763Z,1.37
2022-09-10T20:29:25.588Z,1.37
2022-09-10T20:31:53.193Z,1.20
2022-09-10T20:34:21.936Z,1.15
2022-09-10T20:36:51.383Z,1.40
2022-09-10T20:39:21.380Z,1.20
2022-09-10T20:41:49.214Z,1.30
2022-09-10T20:44:17.234Z,1.27
2022-09-10T20:47:04.547Z,1.20
2022-09-10T20:49:39.277Z,1.30
2022-09-10T20:52:22.324Z,1.40
2022-09-10T20:54:50.612Z,1.30
2022-09-10T20:57:18.330Z,1.15
2022-09-10T20:59:46.119Z,1.27
2022-09-10T21:02:14.165Z,1.40
2022-09-10T21:04:46.971Z,1.52
2022-09-10T21:07:15.180Z,1.30
2022-09-10T21:09:42.771Z,1.30
2022-09-10T21:12:16.226Z,1.40
2022-09-10T21:14:46.526Z,1.48
2022-09-10T21:17:23.587Z,1.50
2022-09-10T21:20:09.943Z,1.37
2022-09-10T21:22:40.051Z,1.15
2022-09-10T21:25:33.586Z,1.42
2022-09-10T21:28:07.364Z,1.90
2022-09-10T21:30:38.697Z,1.90
2022-09-10T21:33:15.424Z,1.65
2022-09-10T21:35:47.373Z,2.10
2022-09-10T21:38:18.171Z,1.60
2022-09-10T21:40:55.369Z,1.67
2022-09-10T21:43:26.484Z,1.70
2022-09-10T21:45:54.716Z,1.55
2022-09-10T21:48:35.910Z,1.50
2022-09-10T21:51:05.718Z,1.40
2022-09-10T21:53:42.662Z,1.30
2022-09-10T21:56:22.291Z,1.40
2022-09-10T21:59:26.885Z,1.50
2022-09-10T22:02:00.712Z,1.10
2022-09-10T22:04:31.430Z,1.27
2022-09-10T22:06:58.872Z,1.30
2022-09-10T22:09:26.693Z,1.20
2022-09-10T22:11:59.543Z,1.20
2022-09-10T22:14:27.200Z,1.20
2022-09-10T22:16:55.188Z,1.20
2022-09-10T22:19:24.707Z,1.20
2022-09-10T22:21:59.280Z,1.30
2022-09-10T22:24:26.962Z,1.23
2022-09-10T22:26:57.309Z,1.40
2022-09-10T22:29:27.662Z,1.30
2022-09-10T22:31:55.772Z,1.42
2022-09-10T22:34:24.208Z,1.40
2022-09-10T22:36:51.705Z,1.40
2022-09-10T22:39:25.211Z,1.35
2022-09-10T22:41:58.055Z,1.30
2022-09-10T22:44:26.371Z,1.20
2022-09-10T22:46:53.912Z,1.20
2022-09-10T22:49:21.987Z,1.20
2022-09-10T22:51:49.741Z,1.30
2022-09-10T22:54:17.805Z,1.20
2022-09-10T22:56:45.405Z,1.10
2022-09-10T22:59:14.040Z,1.20
2022-09-10T23:01:47.398Z,1.10
2022-09-10T23:04:18.572Z,1.20
2022-09-10T23:06:46.840Z,1.20
2022-09-10T23:09:16.193Z,1.23
2022-09-10T23:11:45.158Z,1.30
2022-09-10T23:14:19.940Z,1.27
2022-09-10T23:16:51.807Z,1.30
2022-09-10T23:19:21.384Z,1.25
2022-09-10T23:21:54.313Z,1.35
2022-09-10T23:24:26.503Z,1.10
2022-09-10T23:26:57.566Z,1.35
2022-09-10T23:29:27.264Z,1.20
2022-09-10T23:31:54.923Z,1.30
2022-09-10T23:34:22.763Z,1.30
2022-09-10T23:36:53.735Z,1.40
2022-09-10T23:39:23.417Z,1.30
2022-09-10T23:41:53.557Z,1.40
2022-09-10T23:44:21.405Z,1.50
2022-09-10T23:46:49.069Z,1.37
2022-09-10T23:49:19.292Z,1.30
2022-09-10T23:51:47.063Z,1.20
2022-09-10T23:54:22.968Z,1.40
2022-09-10T23:56:51.662Z,1.42
2022-09-10T23:59:19.541Z,1.40
